sensor_id;sensor_type;location;lat;lon;timestamp;pressure;altitude;pressure_sealevel;temperature;humidity
36304;BME280;22335;49.800;8.596;2023-04-07T00:06:15;100515.53;;;11.32;59.70
36304;BME280;22335;49.800;8.596;2023-04-07T00:12:58;100512.22;;;11.36;59.78
36304;BME280;22335;49.800;8.596;2023-04-07T00:19:43;100513.44;;;11.24;60.13
36304;BME280;22335;49.800;8.596;2023-04-07T00:26:27;100493.63;;;11.32;59.78
36304;BME280;22335;49.800;8.596;2023-04-07T00:33:12;100481.88;;;11.27;59.96
36304;BME280;22335;49.800;8.596;2023-04-07T00:39:57;100489.09;;;11.18;60.56
36304;BME280;22335;49.800;8.596;2023-04-07T00:46:41;100469.66;;;11.19;60.53
36304;BME280;22335;49.800;8.596;2023-04-07T00:53:24;100451.09;;;11.11;60.82
36304;BME280;22335;49.800;8.596;2023-04-07T01:00:10;100442.81;;;11.21;60.75
36304;BME280;22335;49.800;8.596;2023-04-07T01:07:03;100443.53;;;11.32;60.25
36304;BME280;22335;49.800;8.596;2023-04-07T01:13:54;100436.75;;;11.48;59.96
36304;BME280;22335;49.800;8.596;2023-04-07T01:21:10;100414.97;;;11.38;60.03
36304;BME280;22335;49.800;8.596;2023-04-07T01:28:09;100424.41;;;11.51;59.77
36304;BME280;22335;49.800;8.596;2023-04-07T01:34:59;100423.25;;;11.57;59.66
36304;BME280;22335;49.800;8.596;2023-04-07T01:41:44;100418.47;;;11.68;59.08
36304;BME280;22335;49.800;8.596;2023-04-07T01:48:28;100407.50;;;11.68;59.17
36304;BME280;22335;49.800;8.596;2023-04-07T01:55:13;100338.13;;;11.29;59.59
36304;BME280;22335;49.800;8.596;2023-04-07T02:02:14;100407.91;;;11.80;59.25
36304;BME280;22335;49.800;8.596;2023-04-07T02:09:01;100406.44;;;11.88;59.04
36304;BME280;22335;49.800;8.596;2023-04-07T02:15:50;100362.63;;;11.64;58.60
36304;BME280;22335;49.800;8.596;2023-04-07T02:22:35;100397.06;;;11.94;57.79
36304;BME280;22335;49.800;8.596;2023-04-07T02:29:19;100386.91;;;11.94;58.04
36304;BME280;22335;49.800;8.596;2023-04-07T02:36:04;100385.66;;;11.87;58.30
36304;BME280;22335;49.800;8.596;2023-04-07T02:42:48;100384.91;;;11.76;58.51
36304;BME280;22335;49.800;8.596;2023-04-07T03:04:35;100364.69;;;11.53;58.74
36304;BME280;22335;49.800;8.596;2023-04-07T03:11:19;100363.56;;;11.54;58.73
36304;BME280;22335;49.800;8.596;2023-04-07T03:18:03;100364.38;;;11.54;58.76
36304;BME280;22335;49.800;8.596;2023-04-07T03:24:49;100357.44;;;11.62;58.93
36304;BME280;22335;49.800;8.596;2023-04-07T03:31:36;100362.03;;;11.67;58.66
36304;BME280;22335;49.800;8.596;2023-04-07T03:38:20;100365.00;;;11.70;58.65
36304;BME280;22335;49.800;8.596;2023-04-07T03:45:10;100351.59;;;11.69;58.82
36304;BME280;22335;49.800;8.596;2023-04-07T03:51:59;100362.25;;;11.70;58.86
36304;BME280;22335;49.800;8.596;2023-04-07T03:58:43;100348.31;;;11.67;58.97
36304;BME280;22335;49.800;8.596;2023-04-07T04:05:34;100346.72;;;11.66;59.15
36304;BME280;22335;49.800;8.596;2023-04-07T04:12:20;100349.72;;;11.64;58.92
36304;BME280;22335;49.800;8.596;2023-04-07T04:19:14;100345.81;;;11.70;58.85
36304;BME280;22335;49.800;8.596;2023-04-07T04:26:00;100349.59;;;11.74;59.17
36304;BME280;22335;49.800;8.596;2023-04-07T04:32:46;100352.84;;;11.76;58.80
36304;BME280;22335;49.800;8.596;2023-04-07T04:39:33;100335.97;;;11.69;59.05
36304;BME280;22335;49.800;8.596;2023-04-07T04:46:19;100356.06;;;11.84;58.83
36304;BME280;22335;49.800;8.596;2023-04-07T04:53:03;100356.88;;;11.84;59.05
36304;BME280;22335;49.800;8.596;2023-04-07T04:59:47;100360.47;;;11.80;58.83
36304;BME280;22335;49.800;8.596;2023-04-07T05:06:32;100340.91;;;11.67;59.38
36304;BME280;22335;49.800;8.596;2023-04-07T05:13:21;100366.91;;;11.94;58.84
36304;BME280;22335;49.800;8.596;2023-04-07T05:20:08;100355.56;;;12.19;58.36
36304;BME280;22335;49.800;8.596;2023-04-07T05:26:56;100359.75;;;12.50;58.13
36304;BME280;22335;49.800;8.596;2023-04-07T05:33:40;100303.94;;;12.40;57.64
36304;BME280;22335;49.800;8.596;2023-04-07T05:40:24;100360.59;;;13.10;57.28
36304;BME280;22335;49.800;8.596;2023-04-07T05:47:11;100366.31;;;13.28;56.72
36304;BME280;22335;49.800;8.596;2023-04-07T05:53:55;100371.63;;;13.38;56.43
36304;BME280;22335;49.800;8.596;2023-04-07T06:00:40;100379.63;;;13.48;56.53
36304;BME280;22335;49.800;8.596;2023-04-07T06:07:29;100372.59;;;13.28;56.64
36304;BME280;22335;49.800;8.596;2023-04-07T06:14:16;100364.47;;;13.23;56.72
36304;BME280;22335;49.800;8.596;2023-04-07T06:21:02;100368.44;;;13.31;56.67
36304;BME280;22335;49.800;8.596;2023-04-07T06:27:47;100371.78;;;13.28;57.01
36304;BME280;22335;49.800;8.596;2023-04-07T06:34:31;100368.22;;;13.13;56.74
36304;BME280;22335;49.800;8.596;2023-04-07T06:41:14;100356.31;;;13.04;57.25
36304;BME280;22335;49.800;8.596;2023-04-07T06:47:59;100372.56;;;13.01;57.00
36304;BME280;22335;49.800;8.596;2023-04-07T06:54:44;100311.91;;;12.69;57.54
36304;BME280;22335;49.800;8.596;2023-04-07T07:01:27;100379.28;;;13.08;57.68
36304;BME280;22335;49.800;8.596;2023-04-07T07:08:12;100376.22;;;13.10;57.85
36304;BME280;22335;49.800;8.596;2023-04-07T07:14:56;100393.22;;;12.98;58.07
36304;BME280;22335;49.800;8.596;2023-04-07T07:21:39;100391.75;;;12.87;58.35
36304;BME280;22335;49.800;8.596;2023-04-07T07:28:25;100401.41;;;12.84;58.46
36304;BME280;22335;49.800;8.596;2023-04-07T07:35:09;100399.13;;;13.05;58.59
36304;BME280;22335;49.800;8.596;2023-04-07T07:41:53;100406.91;;;13.31;58.29
36304;BME280;22335;49.800;8.596;2023-04-07T07:48:38;100348.69;;;13.01;58.07
36304;BME280;22335;49.800;8.596;2023-04-07T07:55:21;100400.63;;;13.44;57.80
36304;BME280;22335;49.800;8.596;2023-04-07T08:02:30;100409.03;;;13.75;57.03
36304;BME280;22335;49.800;8.596;2023-04-07T08:09:15;100385.94;;;13.76;56.77
36304;BME280;22335;49.800;8.596;2023-04-07T08:15:59;100429.84;;;14.18;56.92
36304;BME280;22335;49.800;8.596;2023-04-07T08:22:43;100425.13;;;14.18;56.26
36304;BME280;22335;49.800;8.596;2023-04-07T08:29:28;100422.09;;;14.20;56.29
36304;BME280;22335;49.800;8.596;2023-04-07T08:36:11;100427.78;;;14.23;56.50
36304;BME280;22335;49.800;8.596;2023-04-07T08:42:56;100424.50;;;14.35;56.53
36304;BME280;22335;49.800;8.596;2023-04-07T08:49:44;100429.63;;;14.50;56.00
36304;BME280;22335;49.800;8.596;2023-04-07T08:56:31;100458.28;;;14.49;55.61
36304;BME280;22335;49.800;8.596;2023-04-07T09:03:18;100444.47;;;14.41;56.03
36304;BME280;22335;49.800;8.596;2023-04-07T09:10:04;100448.31;;;14.53;55.69
36304;BME280;22335;49.800;8.596;2023-04-07T09:16:50;100454.44;;;14.73;55.54
36304;BME280;22335;49.800;8.596;2023-04-07T09:23:35;100450.25;;;14.75;55.34
36304;BME280;22335;49.800;8.596;2023-04-07T09:30:21;100455.50;;;14.86;54.79
36304;BME280;22335;49.800;8.596;2023-04-07T09:37:06;100454.66;;;14.99;54.76
36304;BME280;22335;49.800;8.596;2023-04-07T09:43:55;100449.00;;;15.04;54.88
36304;BME280;22335;49.800;8.596;2023-04-07T09:50:47;100446.75;;;15.06;54.97
36304;BME280;22335;49.800;8.596;2023-04-07T09:57:32;100454.88;;;15.11;55.10
36304;BME280;22335;49.800;8.596;2023-04-07T10:04:15;100453.38;;;15.05;54.92
36304;BME280;22335;49.800;8.596;2023-04-07T10:11:01;100417.13;;;14.89;54.54
36304;BME280;22335;49.800;8.596;2023-04-07T10:17:46;100451.06;;;15.30;54.63
36304;BME280;22335;49.800;8.596;2023-04-07T10:24:43;100461.50;;;15.41;54.67
36304;BME280;22335;49.800;8.596;2023-04-07T10:31:33;100462.88;;;15.53;53.92
36304;BME280;22335;49.800;8.596;2023-04-07T10:38:19;100458.72;;;15.64;54.31
36304;BME280;22335;49.800;8.596;2023-04-07T10:45:03;100471.19;;;15.61;54.14
36304;BME280;22335;49.800;8.596;2023-04-07T10:52:20;100478.47;;;15.66;54.11
36304;BME280;22335;49.800;8.596;2023-04-07T10:59:13;100476.25;;;15.68;53.95
36304;BME280;22335;49.800;8.596;2023-04-07T11:06:02;100485.94;;;15.65;54.39
36304;BME280;22335;49.800;8.596;2023-04-07T11:13:02;100482.66;;;15.55;54.62
36304;BME280;22335;49.800;8.596;2023-04-07T11:19:51;100429.22;;;15.33;54.32
36304;BME280;22335;49.800;8.596;2023-04-07T11:26:39;100475.78;;;15.75;54.60
36304;BME280;22335;49.800;8.596;2023-04-07T11:33:25;100482.03;;;15.89;54.87
36304;BME280;22335;49.800;8.596;2023-04-07T11:40:11;100487.88;;;15.96;54.76
36304;BME280;22335;49.800;8.596;2023-04-07T11:46:58;100485.94;;;16.05;54.72
36304;BME280;22335;49.800;8.596;2023-04-07T11:53:46;100490.63;;;15.96;55.18
36304;BME280;22335;49.800;8.596;2023-04-07T12:00:30;100508.84;;;16.14;54.41
36304;BME280;22335;49.800;8.596;2023-04-07T12:07:13;100507.94;;;15.88;55.72
36304;BME280;22335;49.800;8.596;2023-04-07T12:13:58;100510.09;;;16.00;56.08
36304;BME280;22335;49.800;8.596;2023-04-07T12:20:45;100515.00;;;16.03;55.32
36304;BME280;22335;49.800;8.596;2023-04-07T12:27:28;100446.19;;;15.66;55.49
36304;BME280;22335;49.800;8.596;2023-04-07T12:34:21;100518.44;;;16.17;55.27
36304;BME280;22335;49.800;8.596;2023-04-07T12:41:06;100516.84;;;16.25;55.81
36304;BME280;22335;49.800;8.596;2023-04-07T12:47:50;100523.53;;;16.32;55.78
36304;BME280;22335;49.800;8.596;2023-04-07T12:54:35;100521.53;;;16.24;55.81
36304;BME280;22335;49.800;8.596;2023-04-07T13:01:18;100514.22;;;16.28;55.45
36304;BME280;22335;49.800;8.596;2023-04-07T13:08:02;100525.97;;;16.43;54.40
36304;BME280;22335;49.800;8.596;2023-04-07T13:14:47;100522.25;;;16.56;54.56
36304;BME280;22335;49.800;8.596;2023-04-07T13:21:37;100516.22;;;16.63;54.21
36304;BME280;22335;49.800;8.596;2023-04-07T13:28:26;100507.44;;;16.43;53.80
36304;BME280;22335;49.800;8.596;2023-04-07T13:35:11;100537.03;;;16.60;53.71
36304;BME280;22335;49.800;8.596;2023-04-07T13:41:55;100525.34;;;16.54;53.67
36304;BME280;22335;49.800;8.596;2023-04-07T13:48:39;100505.19;;;16.45;53.63
36304;BME280;22335;49.800;8.596;2023-04-07T13:55:23;100523.69;;;16.53;53.76
36304;BME280;22335;49.800;8.596;2023-04-07T14:02:07;100534.25;;;16.43;54.06
36304;BME280;22335;49.800;8.596;2023-04-07T14:08:51;100535.84;;;16.26;54.28
36304;BME280;22335;49.800;8.596;2023-04-07T14:15:35;100540.53;;;16.17;54.65
36304;BME280;22335;49.800;8.596;2023-04-07T14:22:19;100539.94;;;15.98;54.95
36304;BME280;22335;49.800;8.596;2023-04-07T14:29:02;100537.19;;;15.66;55.39
36304;BME280;22335;49.800;8.596;2023-04-07T14:35:47;100543.31;;;15.55;55.39
36304;BME280;22335;49.800;8.596;2023-04-07T14:42:32;100537.09;;;15.72;55.45
36304;BME280;22335;49.800;8.596;2023-04-07T14:49:17;100539.94;;;15.66;56.05
36304;BME280;22335;49.800;8.596;2023-04-07T14:56:04;100533.88;;;15.78;56.27
36304;BME280;22335;49.800;8.596;2023-04-07T15:02:50;100536.25;;;16.02;55.79
36304;BME280;22335;49.800;8.596;2023-04-07T15:09:34;100533.56;;;16.20;54.79
36304;BME280;22335;49.800;8.596;2023-04-07T15:16:19;100542.31;;;16.22;55.54
36304;BME280;22335;49.800;8.596;2023-04-07T15:23:02;100553.03;;;16.23;55.08
36304;BME280;22335;49.800;8.596;2023-04-07T15:29:46;100412.06;;;15.36;54.88
36304;BME280;22335;49.800;8.596;2023-04-07T15:36:30;100545.28;;;16.43;54.75
36304;BME280;22335;49.800;8.596;2023-04-07T15:43:14;100549.69;;;16.52;54.31
36304;BME280;22335;49.800;8.596;2023-04-07T15:49:57;100512.75;;;16.22;54.22
36304;BME280;22335;49.800;8.596;2023-04-07T15:56:42;100555.22;;;16.52;54.08
36304;BME280;22335;49.800;8.596;2023-04-07T16:03:26;100563.97;;;16.46;54.10
36304;BME280;22335;49.800;8.596;2023-04-07T16:10:10;100557.16;;;16.52;53.82
36304;BME280;22335;49.800;8.596;2023-04-07T16:16:55;100562.53;;;16.57;53.49
36304;BME280;22335;49.800;8.596;2023-04-07T16:23:39;100566.28;;;16.61;53.21
36304;BME280;22335;49.800;8.596;2023-04-07T16:30:23;100572.41;;;16.49;53.03
36304;BME280;22335;49.800;8.596;2023-04-07T16:37:08;100579.66;;;16.28;53.17
36304;BME280;22335;49.800;8.596;2023-04-07T16:43:52;100589.53;;;16.11;53.30
36304;BME280;22335;49.800;8.596;2023-04-07T16:50:40;100589.13;;;15.96;53.37
36304;BME280;22335;49.800;8.596;2023-04-07T16:57:25;100591.38;;;15.94;53.36
36304;BME280;22335;49.800;8.596;2023-04-07T17:04:08;100594.25;;;15.80;53.32
36304;BME280;22335;49.800;8.596;2023-04-07T17:10:52;100528.38;;;15.25;53.07
36304;BME280;22335;49.800;8.596;2023-04-07T17:17:37;100630.75;;;15.85;52.82
36304;BME280;22335;49.800;8.596;2023-04-07T17:24:21;100638.63;;;15.92;52.60
36304;BME280;22335;49.800;8.596;2023-04-07T17:31:05;100600.94;;;15.65;52.43
36304;BME280;22335;49.800;8.596;2023-04-07T17:37:50;100651.56;;;15.91;52.15
36304;BME280;22335;49.800;8.596;2023-04-07T17:44:33;100658.09;;;15.96;52.35
36304;BME280;22335;49.800;8.596;2023-04-07T17:51:17;100668.69;;;16.02;52.08
36304;BME280;22335;49.800;8.596;2023-04-07T17:58:01;100631.66;;;15.72;51.73
36304;BME280;22335;49.800;8.596;2023-04-07T18:04:45;100675.47;;;15.96;51.56
36304;BME280;22335;49.800;8.596;2023-04-07T18:11:28;100683.22;;;15.94;51.63
36304;BME280;22335;49.800;8.596;2023-04-07T18:18:14;100698.78;;;15.90;51.53
36304;BME280;22335;49.800;8.596;2023-04-07T18:24:57;100710.69;;;15.99;51.66
36304;BME280;22335;49.800;8.596;2023-04-07T18:31:42;100709.94;;;16.07;51.23
36304;BME280;22335;49.800;8.596;2023-04-07T18:38:26;100713.88;;;16.15;51.21
36304;BME280;22335;49.800;8.596;2023-04-07T18:45:10;100721.53;;;16.18;50.84
36304;BME280;22335;49.800;8.596;2023-04-07T18:51:53;100701.59;;;15.99;50.93
36304;BME280;22335;49.800;8.596;2023-04-07T18:58:38;100732.28;;;16.28;50.86
36304;BME280;22335;49.800;8.596;2023-04-07T19:05:26;100750.53;;;16.38;50.70
36304;BME280;22335;49.800;8.596;2023-04-07T19:12:12;100753.50;;;16.42;50.64
36304;BME280;22335;49.800;8.596;2023-04-07T19:18:57;100760.44;;;16.39;50.78
36304;BME280;22335;49.800;8.596;2023-04-07T19:25:41;100758.38;;;16.45;51.06
36304;BME280;22335;49.800;8.596;2023-04-07T19:32:26;100771.84;;;16.46;50.88
36304;BME280;22335;49.800;8.596;2023-04-07T19:39:11;100782.72;;;16.43;50.72
36304;BME280;22335;49.800;8.596;2023-04-07T19:45:56;100786.09;;;16.40;50.81
36304;BME280;22335;49.800;8.596;2023-04-07T19:52:40;100793.41;;;16.35;50.50
36304;BME280;22335;49.800;8.596;2023-04-07T19:59:27;100791.06;;;16.29;50.57
36304;BME280;22335;49.800;8.596;2023-04-07T20:06:10;100800.59;;;16.23;50.57
36304;BME280;22335;49.800;8.596;2023-04-07T20:12:55;100800.75;;;16.18;50.70
36304;BME280;22335;49.800;8.596;2023-04-07T20:19:40;100806.19;;;16.09;50.90
36304;BME280;22335;49.800;8.596;2023-04-07T20:26:23;100817.84;;;16.06;50.63
36304;BME280;22335;49.800;8.596;2023-04-07T20:33:07;100819.81;;;16.05;50.83
36304;BME280;22335;49.800;8.596;2023-04-07T20:39:52;100798.28;;;15.94;51.13
36304;BME280;22335;49.800;8.596;2023-04-07T20:46:36;100808.81;;;15.91;51.28
36304;BME280;22335;49.800;8.596;2023-04-07T20:53:19;100820.59;;;15.83;51.38
36304;BME280;22335;49.800;8.596;2023-04-07T21:00:06;100811.91;;;15.76;51.51
36304;BME280;22335;49.800;8.596;2023-04-07T21:06:50;100821.94;;;15.72;51.61
36304;BME280;22335;49.800;8.596;2023-04-07T21:13:34;100827.59;;;15.67;51.51
36304;BME280;22335;49.800;8.596;2023-04-07T21:20:18;100829.59;;;15.61;51.93
36304;BME280;22335;49.800;8.596;2023-04-07T21:27:02;100829.41;;;15.58;51.79
36304;BME280;22335;49.800;8.596;2023-04-07T21:33:46;100824.09;;;15.61;51.85
36304;BME280;22335;49.800;8.596;2023-04-07T21:40:31;100824.81;;;15.53;51.72
36304;BME280;22335;49.800;8.596;2023-04-07T21:47:14;100825.53;;;15.59;52.02
36304;BME280;22335;49.800;8.596;2023-04-07T21:53:58;100830.72;;;15.60;52.02
36304;BME280;22335;49.800;8.596;2023-04-07T22:00:45;100843.59;;;15.51;51.78
36304;BME280;22335;49.800;8.596;2023-04-07T22:07:29;100841.78;;;15.47;52.10
36304;BME280;22335;49.800;8.596;2023-04-07T22:14:12;100846.56;;;15.41;51.74
36304;BME280;22335;49.800;8.596;2023-04-07T22:20:57;100848.13;;;15.33;52.16
36304;BME280;22335;49.800;8.596;2023-04-07T22:27:42;100846.66;;;15.36;51.48
36304;BME280;22335;49.800;8.596;2023-04-07T22:34:26;100855.03;;;15.17;52.11
36304;BME280;22335;49.800;8.596;2023-04-07T22:41:10;100840.16;;;14.90;52.29
36304;BME280;22335;49.800;8.596;2023-04-07T22:47:54;100862.69;;;15.20;52.19
36304;BME280;22335;49.800;8.596;2023-04-07T22:54:37;100865.47;;;15.20;52.15
36304;BME280;22335;49.800;8.596;2023-04-07T23:01:22;100870.47;;;15.18;51.89
36304;BME280;22335;49.800;8.596;2023-04-07T23:08:07;100868.22;;;15.20;52.10
36304;BME280;22335;49.800;8.596;2023-04-07T23:14:51;100869.22;;;15.10;51.94
36304;BME280;22335;49.800;8.596;2023-04-07T23:21:36;100871.59;;;15.03;52.15
36304;BME280;22335;49.800;8.596;2023-04-07T23:28:20;100712.94;;;14.00;51.87
36304;BME280;22335;49.800;8.596;2023-04-07T23:35:04;100884.75;;;15.06;51.74
36304;BME280;22335;49.800;8.596;2023-04-07T23:41:49;100881.25;;;15.01;52.32
36304;BME280;22335;49.800;8.596;2023-04-07T23:48:33;100880.75;;;14.98;52.40
36304;BME280;22335;49.800;8.596;2023-04-07T23:55:17;100887.91;;;14.99;52.02
